VAM Template | Jonatha

Virtual Airlines Manager! A new look to your va. By: Jonatha Silva




 METAR ET TAF INFORMATION
METAR FOR LEBB
ADDS - METARS form results

(1151 UTC 18 October 2019)
Data provider http://aviationweather.gov/metar/data/
 
METAR text: LEBB 181130Z 06003KT 360V140 9999 SCT024 BKN048 19/14 Q1016 NOSIG
Conditions at: LEBB (BILBAO/SONDICA , ES) observed 1130 UTC 18 October 2019
Temperature: 19.0°C (66°F)
Dewpoint: 14.0°C (57°F) [RH = 73%]
Pressure (altimeter): 30.00 inches Hg (1016.0 mb)
Winds: from the ENE (60 degrees) at 3 MPH (3 knots; 1.5 m/s)
Visibility: 6 or more miles (10+ km)
Ceiling: 4800 feet AGL
Clouds: scattered clouds at 2400 feet AGL
broken clouds at 4800 feet AGL
Weather: no significant weather observed at this time

METAR text: LEBB 181100Z 10004KT 050V160 9999 FEW028 BKN048 19/15 Q1016 NOSIG
Conditions at: LEBB (BILBAO/SONDICA , ES) observed 1100 UTC 18 October 2019
Temperature: 19.0°C (66°F)
Dewpoint: 15.0°C (59°F) [RH = 78%]
Pressure (altimeter): 30.00 inches Hg (1016.0 mb)
Winds: from the E (100 degrees) at 5 MPH (4 knots; 2.1 m/s)
Visibility: 6 or more miles (10+ km)
Ceiling: 4800 feet AGL
Clouds: few clouds at 2800 feet AGL
broken clouds at 4800 feet AGL
Weather: no significant weather observed at this time

Forecast for: LEBB (BILBAO/SONDICA , ES)
Text: TAF LEBB 181100Z 1812/1912 VRB05KT 9999 BKN040 TX20/1815Z TN15/1822Z
Forecast period: 1200 to 2100 UTC 18 October 2019
Forecast type: FROM: standard forecast or significant change
Winds: variable direction winds at 6 MPH (5 knots; 2.6 m/s)
Visibility: 6 or more miles 10+ km)
Ceiling: 4000 feet AGL
Clouds: broken clouds at 4000 feet AGL
Weather: no significant weather forecast for this period
Text: BECMG 1821/1824 20010KT
Forecast period: 2100 UTC 18 October 2019 to 1200 UTC 19 October 2019
Forecast type: BECOMING: Conditions expected to become as follows by 0000 UTC 19 October 2019
Winds: from the SSW (200 degrees) at 12 MPH (10 knots; 5.1 m/s)
Visibility: 6 or more miles 10+ km)
Ceiling: 4000 feet AGL
Clouds: broken clouds at 4000 feet AGL
Weather: no significant weather forecast for this period

 AÉROPORT DE AÉROPORT

 INFORMATIONS DE PISTE
Piste 10 Longueur de la piste 6562 ft Largeur de la piste 148 ft
Élévation de la piste 116 ft Seuil de la piste déplacés 0 ft Runway heading 97
Piste 28 Longueur de la piste 6562 ft Largeur de la piste 148 ft
Élévation de la piste 129 ft Seuil de la piste déplacés 0 ft Runway heading 277
Piste 12 Longueur de la piste 8530 ft Largeur de la piste 148 ft
Élévation de la piste 119 ft Seuil de la piste déplacés 0 ft Runway heading 117
Piste 30 Longueur de la piste 8530 ft Largeur de la piste 148 ft
Élévation de la piste 128 ft Seuil de la piste déplacés 1509 ft Runway heading 297

 AÉROPORT FRÉQUENCES
Type APP Nom APP Féquence 120.7 MHZ
Type ATIS Nom ATIS Féquence 118.825 MHZ
Type GND Nom GND Féquence 121.7 MHZ
Type TWR Nom TWR Féquence 118.5 MHZ

 SIDA DE NAVIGATION
Type VOR-DME Nom Bilbao Féquence 115900 KHZ